Time;durP1;ratioP1;P1;durP2;ratioP2;P2;SDS_P1;SDS_P2;PMS_P1;PMS_P2;Temp;Humidity;BMP_temperature;BMP_pressure;BME280_temperature;BME280_humidity;BME280_pressure;Samples;Min_cycle;Max_cycle;Signal;HPM_P1;HPM_P2
2023/08/01 00:01:32;;;;;;;3.65;1.98;;;20.70;99.90;;;;;;7387192;19;20585;-77
2023/08/01 00:03:58;;;;;;;4.07;2.20;;;20.70;99.90;;;;;;7384705;19;20174;-78
2023/08/01 00:06:24;;;;;;;2.72;1.98;;;20.60;99.90;;;;;;7386267;19;20225;-76
2023/08/01 00:08:51;;;;;;;3.55;2.22;;;20.50;99.90;;;;;;7385926;19;20135;-78
2023/08/01 00:11:17;;;;;;;3.35;2.45;;;20.50;99.90;;;;;;7386246;19;20238;-78
2023/08/01 00:13:43;;;;;;;4.80;2.10;;;20.60;99.90;;;;;;7383419;19;20177;-77
2023/08/01 00:16:09;;;;;;;5.22;2.45;;;20.60;99.90;;;;;;7385170;19;20250;-78
2023/08/01 00:18:35;;;;;;;2.92;2.33;;;20.70;99.90;;;;;;7387124;19;20143;-77
2023/08/01 00:21:01;;;;;;;3.88;2.35;;;20.70;99.90;;;;;;7385639;19;20138;-78
2023/08/01 00:23:27;;;;;;;3.45;1.70;;;20.50;99.90;;;;;;7387519;19;20594;-77
2023/08/01 00:25:53;;;;;;;3.03;2.13;;;20.40;99.90;;;;;;7385109;19;20138;-77
2023/08/01 00:28:19;;;;;;;4.30;2.40;;;20.50;99.90;;;;;;7385188;19;20137;-78
2023/08/01 00:30:45;;;;;;;3.67;2.08;;;20.50;99.90;;;;;;7384124;19;20159;-77
2023/08/01 00:33:10;;;;;;;3.63;2.58;;;20.60;99.90;;;;;;7385024;19;20147;-77
2023/08/01 00:35:36;;;;;;;3.53;2.30;;;20.60;99.90;;;;;;7386907;19;20139;-77
2023/08/01 00:38:02;;;;;;;5.93;2.50;;;20.60;99.90;;;;;;7385128;19;20156;-77
2023/08/01 00:40:31;;;;;;;3.83;2.20;;;20.60;99.90;;;;;;7385951;19;20131;-77
2023/08/01 00:42:57;;;;;;;2.55;2.08;;;20.50;99.90;;;;;;7387077;19;20142;-77
2023/08/01 00:45:26;;;;;;;4.88;2.40;;;20.50;99.90;;;;;;7384812;19;20150;-77
2023/08/01 00:47:53;;;;;;;4.40;2.20;;;20.50;99.90;;;;;;7385530;19;20139;-78
2023/08/01 00:50:20;;;;;;;3.92;2.28;;;20.30;99.90;;;;;;7383303;19;20139;-77
2023/08/01 00:52:47;;;;;;;4.50;2.40;;;20.30;99.90;;;;;;7384191;19;20164;-76
2023/08/01 00:55:14;;;;;;;2.80;2.10;;;20.30;99.90;;;;;;7384021;19;20135;-77
2023/08/01 00:57:40;;;;;;;3.00;2.15;;;20.40;99.90;;;;;;7387513;19;20131;-79
2023/08/01 01:00:06;;;;;;;7.60;2.60;;;20.30;99.90;;;;;;7385455;19;20179;-79
2023/08/01 01:02:32;;;;;;;4.03;2.33;;;20.30;99.90;;;;;;7387590;19;20149;-78
2023/08/01 01:04:58;;;;;;;2.60;2.10;;;20.30;99.90;;;;;;7385534;19;20138;-78
2023/08/01 01:07:26;;;;;;;2.63;2.20;;;20.40;99.90;;;;;;7384996;19;20561;-78
2023/08/01 01:09:52;;;;;;;3.28;2.15;;;20.40;99.90;;;;;;7386602;19;20202;-78
2023/08/01 01:12:17;;;;;;;4.55;2.45;;;20.30;99.90;;;;;;7391435;19;20595;-77
2023/08/01 01:14:43;;;;;;;4.78;2.50;;;20.50;99.90;;;;;;7391886;19;20143;-78
2023/08/01 01:17:09;;;;;;;5.05;2.50;;;20.40;99.90;;;;;;7392218;19;20829;-80
2023/08/01 01:19:34;;;;;;;4.07;2.50;;;20.40;99.90;;;;;;7390306;19;20135;-79
2023/08/01 01:22:03;;;;;;;3.63;2.47;;;20.20;99.90;;;;;;7393600;19;20135;-77
2023/08/01 01:24:29;;;;;;;3.58;2.33;;;20.10;99.90;;;;;;7391785;19;20635;-77
2023/08/01 01:26:59;;;;;;;3.38;2.20;;;20.20;99.90;;;;;;7391187;19;20134;-79
2023/08/01 01:29:26;;;;;;;4.20;2.55;;;20.20;99.90;;;;;;7389744;19;20734;-78
2023/08/01 01:31:53;;;;;;;3.42;2.40;;;20.30;99.90;;;;;;7389514;19;20137;-77
2023/08/01 01:34:19;;;;;;;3.90;2.20;;;20.30;99.90;;;;;;7385635;19;20234;-77
2023/08/01 01:36:44;;;;;;;5.88;2.60;;;20.30;99.90;;;;;;7393409;19;20230;-77
2023/08/01 01:39:10;;;;;;;4.78;2.53;;;20.40;99.90;;;;;;7390446;19;20206;-78
2023/08/01 01:41:36;;;;;;;3.55;2.38;;;20.20;99.90;;;;;;7393244;19;20161;-78
2023/08/01 01:44:02;;;;;;;3.67;2.75;;;20.30;99.90;;;;;;7390592;19;20161;-79
2023/08/01 01:46:27;;;;;;;3.65;2.30;;;20.00;99.90;;;;;;7391984;19;20575;-78
2023/08/01 01:48:53;;;;;;;3.03;2.53;;;20.00;99.90;;;;;;7388296;19;20158;-78
2023/08/01 01:51:21;;;;;;;3.95;2.58;;;20.00;99.90;;;;;;7391219;19;20642;-78
2023/08/01 01:53:46;;;;;;;3.50;2.30;;;20.10;99.90;;;;;;7390251;19;20213;-78
2023/08/01 01:56:12;;;;;;;4.53;2.25;;;20.10;99.90;;;;;;7390707;19;20139;-78
2023/08/01 01:58:38;;;;;;;4.82;2.30;;;20.20;99.90;;;;;;7388936;19;20213;-77
2023/08/01 02:01:04;;;;;;;3.97;2.40;;;20.10;99.90;;;;;;7390911;19;20201;-78
2023/08/01 02:03:29;;;;;;;3.60;2.60;;;20.10;99.90;;;;;;7389962;19;20143;-78
2023/08/01 02:05:55;;;;;;;4.68;2.58;;;20.20;99.90;;;;;;7385789;19;20138;-78
2023/08/01 02:08:21;;;;;;;4.60;2.60;;;20.20;99.90;;;;;;7388612;19;21011;-78
2023/08/01 02:10:48;;;;;;;4.20;2.22;;;20.20;99.90;;;;;;7389648;19;20131;-78
2023/08/01 02:13:13;;;;;;;2.35;2.15;;;20.20;99.90;;;;;;7388705;19;20147;-78
2023/08/01 02:15:39;;;;;;;3.63;2.40;;;20.20;99.90;;;;;;7388031;19;20159;-78
2023/08/01 02:18:05;;;;;;;3.47;2.20;;;20.00;99.90;;;;;;7390917;19;20837;-78
2023/08/01 02:20:31;;;;;;;2.95;2.17;;;19.70;99.90;;;;;;7388428;19;20169;-76
2023/08/01 02:22:57;;;;;;;3.83;2.45;;;19.80;99.90;;;;;;7388299;19;20218;-77
2023/08/01 02:25:23;;;;;;;2.95;2.40;;;19.80;99.90;;;;;;7385229;19;20158;-77
2023/08/01 02:27:48;;;;;;;3.50;2.33;;;19.70;99.90;;;;;;7390860;19;20142;-77
2023/08/01 02:30:14;;;;;;;4.72;2.60;;;19.50;99.90;;;;;;7387609;19;20174;-77
2023/08/01 02:32:40;;;;;;;3.53;2.50;;;19.60;99.90;;;;;;7388183;19;20146;-77
2023/08/01 02:35:06;;;;;;;3.85;2.42;;;19.80;99.90;;;;;;7389429;19;20134;-77
2023/08/01 02:37:31;;;;;;;3.65;2.50;;;19.80;99.90;;;;;;7392015;19;20799;-77
2023/08/01 02:39:57;;;;;;;4.60;2.30;;;19.90;99.90;;;;;;7387612;19;20215;-78
2023/08/01 02:42:23;;;;;;;3.47;2.30;;;20.00;99.90;;;;;;7391233;19;20468;-77
2023/08/01 02:44:49;;;;;;;3.83;2.33;;;20.00;99.90;;;;;;7387900;19;20150;-78
2023/08/01 02:47:14;;;;;;;4.07;2.70;;;19.90;99.90;;;;;;7385510;19;20166;-78
2023/08/01 02:49:42;;;;;;;3.45;2.10;;;19.90;99.90;;;;;;7386028;19;20150;-78
2023/08/01 02:52:08;;;;;;;4.15;2.50;;;19.90;99.90;;;;;;7388744;19;20156;-77
2023/08/01 02:54:34;;;;;;;3.30;2.20;;;20.00;99.90;;;;;;7389702;19;20701;-77
2023/08/01 02:57:00;;;;;;;3.53;2.42;;;19.90;99.90;;;;;;7388418;19;20166;-78
2023/08/01 02:59:26;;;;;;;4.68;2.30;;;20.00;99.90;;;;;;7388394;19;20142;-78
2023/08/01 03:01:52;;;;;;;3.00;2.10;;;20.10;99.90;;;;;;7388181;19;20505;-77
2023/08/01 03:04:17;;;;;;;7.32;2.88;;;20.00;99.90;;;;;;7385757;19;20295;-78
2023/08/01 03:06:43;;;;;;;3.50;2.33;;;19.90;99.90;;;;;;7386951;19;20134;-76
2023/08/01 03:09:09;;;;;;;3.58;2.50;;;19.80;99.90;;;;;;7387505;19;20142;-78
2023/08/01 03:11:38;;;;;;;3.55;2.55;;;19.70;99.90;;;;;;7387225;19;20156;-77
2023/08/01 03:14:06;;;;;;;3.20;2.22;;;19.80;99.90;;;;;;7385597;19;20131;-77
2023/08/01 03:16:32;;;;;;;3.30;2.60;;;20.00;99.90;;;;;;7390307;19;20440;-77
2023/08/01 03:19:04;;;;;;;3.35;2.28;;;20.10;99.90;;;;;;7388369;19;20149;-77
2023/08/01 03:21:32;;;;;;;5.47;2.65;;;20.20;99.90;;;;;;7389417;19;21713;-78
2023/08/01 03:23:59;;;;;;;3.40;2.50;;;20.20;99.90;;;;;;7385627;19;20162;-78
2023/08/01 03:26:25;;;;;;;2.92;2.40;;;20.00;99.90;;;;;;7387868;19;20150;-78
2023/08/01 03:28:51;;;;;;;4.85;3.05;;;20.00;99.90;;;;;;7385045;19;20136;-77
2023/08/01 03:31:17;;;;;;;4.13;2.70;;;20.20;99.90;;;;;;7389921;19;20595;-77
2023/08/01 03:33:42;;;;;;;4.75;2.63;;;20.00;99.90;;;;;;7382638;19;20135;-78
2023/08/01 03:36:08;;;;;;;3.65;2.70;;;20.20;99.90;;;;;;7389788;19;20135;-77
2023/08/01 03:38:34;;;;;;;6.15;2.85;;;20.20;99.90;;;;;;7387596;19;20180;-77
2023/08/01 03:41:00;;;;;;;4.43;2.83;;;20.30;99.90;;;;;;7387382;19;20130;-77
2023/08/01 03:43:26;;;;;;;4.93;2.58;;;20.30;99.90;;;;;;7387897;19;20160;-77
2023/08/01 03:45:52;;;;;;;6.55;2.95;;;20.10;99.90;;;;;;7385979;19;20828;-78
2023/08/01 03:48:18;;;;;;;3.88;2.28;;;20.00;99.90;;;;;;7386830;19;20146;-76
2023/08/01 03:50:43;;;;;;;4.03;2.40;;;20.00;99.90;;;;;;7386850;19;20180;-77
2023/08/01 03:53:09;;;;;;;4.93;2.63;;;20.00;99.90;;;;;;7387618;19;20569;-78
2023/08/01 03:55:35;;;;;;;2.72;2.33;;;20.00;99.90;;;;;;7387928;19;20154;-79
2023/08/01 03:58:00;;;;;;;4.75;2.25;;;20.10;99.90;;;;;;7385368;19;20470;-79
2023/08/01 04:00:32;;;;;;;4.18;2.30;;;20.00;99.90;;;;;;7388884;19;20149;-78
2023/08/01 04:03:01;;;;;;;4.85;2.30;;;20.00;99.90;;;;;;7387730;19;20444;-79
2023/08/01 04:05:28;;;;;;;4.82;2.72;;;20.00;99.90;;;;;;7388020;19;20210;-79
2023/08/01 04:07:56;;;;;;;3.50;2.33;;;20.00;99.90;;;;;;7385923;19;20138;-79
2023/08/01 04:10:22;;;;;;;3.03;2.10;;;20.00;99.90;;;;;;7387411;19;20131;-79
2023/08/01 04:12:48;;;;;;;2.85;1.88;;;19.90;99.90;;;;;;7389299;19;20146;-78
2023/08/01 04:15:14;;;;;;;6.82;2.40;;;19.90;99.90;;;;;;7389262;19;20141;-79
2023/08/01 04:17:40;;;;;;;4.13;2.08;;;19.90;99.90;;;;;;7386635;19;20131;-79
2023/08/01 04:20:06;;;;;;;3.00;2.28;;;19.90;99.90;;;;;;7386978;19;20148;-78
2023/08/01 04:22:32;;;;;;;3.35;2.05;;;20.00;99.90;;;;;;7387447;19;20498;-79
2023/08/01 04:24:58;;;;;;;4.28;2.33;;;20.00;99.90;;;;;;7388567;19;20134;-79
2023/08/01 04:27:23;;;;;;;3.72;2.05;;;20.00;99.90;;;;;;7386162;19;20167;-78
2023/08/01 04:29:51;;;;;;;3.92;2.00;;;20.00;99.90;;;;;;7385913;19;20148;-79
2023/08/01 04:32:17;;;;;;;4.15;2.28;;;20.00;99.90;;;;;;7388071;19;20242;-77
2023/08/01 04:34:42;;;;;;;4.40;2.15;;;20.00;99.90;;;;;;7386212;19;20165;-79
2023/08/01 04:37:10;;;;;;;3.28;2.17;;;20.10;99.90;;;;;;7385918;19;20134;-80
2023/08/01 04:39:36;;;;;;;4.50;2.60;;;20.20;99.90;;;;;;7385203;19;20139;-78
2023/08/01 04:42:02;;;;;;;4.75;2.45;;;20.40;99.90;;;;;;7387102;19;20173;-79
2023/08/01 04:44:29;;;;;;;4.65;2.35;;;20.20;99.90;;;;;;7386670;19;20158;-78
2023/08/01 04:46:54;;;;;;;3.25;2.10;;;20.10;99.90;;;;;;7392850;19;20135;-78
2023/08/01 04:49:20;;;;;;;3.45;2.20;;;20.00;99.90;;;;;;7390724;19;20146;-79
2023/08/01 04:51:49;;;;;;;3.22;2.08;;;20.10;99.90;;;;;;7394144;19;20154;-77
2023/08/01 04:54:15;;;;;;;4.78;2.30;;;20.20;99.90;;;;;;7389169;19;20206;-78
2023/08/01 04:56:41;;;;;;;4.47;2.45;;;20.20;99.90;;;;;;7392348;19;20219;-78
2023/08/01 04:59:07;;;;;;;4.13;2.47;;;20.20;99.90;;;;;;7391267;19;20143;-78
2023/08/01 05:01:33;;;;;;;3.60;2.00;;;20.10;99.90;;;;;;7392053;19;20174;-78
2023/08/01 05:03:59;;;;;;;5.22;1.98;;;20.10;99.90;;;;;;7390284;19;20632;-79
2023/08/01 05:06:25;;;;;;;3.33;1.98;;;20.10;99.90;;;;;;7392531;19;20138;-77
2023/08/01 05:08:50;;;;;;;3.50;2.00;;;20.10;99.90;;;;;;7390019;19;20149;-78
2023/08/01 05:11:16;;;;;;;5.97;2.20;;;20.10;99.90;;;;;;7391004;19;20138;-77
2023/08/01 05:13:42;;;;;;;4.97;2.30;;;20.40;99.90;;;;;;7390235;19;20144;-78
2023/08/01 05:16:07;;;;;;;3.40;2.30;;;20.50;99.90;;;;;;7392658;19;20150;-77
2023/08/01 05:18:36;;;;;;;5.03;2.30;;;20.60;99.90;;;;;;7389707;19;20598;-77
2023/08/01 05:21:02;;;;;;;3.78;2.22;;;20.60;99.90;;;;;;7392163;19;20163;-78
2023/08/01 05:23:28;;;;;;;2.90;2.47;;;20.60;99.90;;;;;;7391293;19;20154;-77
2023/08/01 05:25:53;;;;;;;3.72;2.22;;;20.60;99.90;;;;;;7389379;19;20210;-81
2023/08/01 05:28:19;;;;;;;4.50;2.63;;;20.50;99.90;;;;;;7390491;19;20164;-80
2023/08/01 05:30:45;;;;;;;3.42;2.20;;;20.60;99.90;;;;;;7392183;19;20163;-80
2023/08/01 05:33:12;;;;;;;3.05;1.98;;;20.60;99.90;;;;;;7388708;19;20242;-80
2023/08/01 05:35:38;;;;;;;4.45;2.08;;;20.50;99.90;;;;;;7392315;19;20138;-79
2023/08/01 05:38:03;;;;;;;4.10;2.10;;;20.30;99.90;;;;;;7389663;19;20629;-80
2023/08/01 05:40:29;;;;;;;5.28;2.47;;;20.40;99.90;;;;;;7392047;19;20139;-81
2023/08/01 05:42:55;;;;;;;3.92;2.20;;;20.30;99.90;;;;;;7391243;19;20154;-80
2023/08/01 05:45:21;;;;;;;6.43;2.75;;;20.40;99.90;;;;;;7389435;19;20154;-80
2023/08/01 05:47:47;;;;;;;4.20;2.45;;;20.30;99.90;;;;;;7390542;19;20161;-79
2023/08/01 05:50:12;;;;;;;3.80;2.78;;;20.40;99.90;;;;;;7389320;19;20165;-80
2023/08/01 05:52:38;;;;;;;5.05;2.70;;;20.40;99.90;;;;;;7388883;19;20591;-80
2023/08/01 05:55:04;;;;;;;4.88;2.65;;;20.40;99.90;;;;;;7389152;19;20146;-81
2023/08/01 05:57:30;;;;;;;5.32;2.90;;;20.50;99.90;;;;;;7388273;19;20514;-80
2023/08/01 05:59:56;;;;;;;4.82;2.42;;;20.50;99.90;;;;;;7387673;19;20154;-79
2023/08/01 06:02:22;;;;;;;6.18;2.88;;;20.60;99.90;;;;;;7388705;19;20182;-77
2023/08/01 06:04:48;;;;;;;4.00;2.90;;;20.50;99.90;;;;;;7386288;19;20437;-78
2023/08/01 06:07:13;;;;;;;7.38;3.00;;;20.70;99.90;;;;;;7390136;19;20258;-76
2023/08/01 06:09:39;;;;;;;6.75;2.88;;;20.70;99.90;;;;;;7391880;19;20155;-79
2023/08/01 06:12:05;;;;;;;8.13;3.28;;;20.70;99.90;;;;;;7392459;19;20141;-81
2023/08/01 06:14:31;;;;;;;5.95;3.10;;;20.70;99.90;;;;;;7390770;19;20206;-78
2023/08/01 06:16:57;;;;;;;9.70;4.05;;;20.70;99.90;;;;;;7388740;19;20499;-79
2023/08/01 06:19:22;;;;;;;5.55;2.90;;;20.80;99.90;;;;;;7389374;19;20521;-79
2023/08/01 06:21:48;;;;;;;5.38;2.75;;;20.80;99.90;;;;;;7386667;19;20150;-78
2023/08/01 06:24:14;;;;;;;4.63;2.60;;;20.80;99.90;;;;;;7389120;19;20135;-79
2023/08/01 06:26:40;;;;;;;3.47;2.40;;;20.80;99.90;;;;;;7389609;19;20610;-81
2023/08/01 06:29:05;;;;;;;4.40;2.40;;;20.70;99.90;;;;;;7390041;19;20133;-80
2023/08/01 06:31:31;;;;;;;6.28;2.80;;;20.70;99.90;;;;;;7391055;19;20149;-80
2023/08/01 06:33:57;;;;;;;4.57;2.72;;;20.40;99.90;;;;;;7389133;19;20143;-80
2023/08/01 06:36:23;;;;;;;4.10;2.60;;;20.40;99.90;;;;;;7390083;19;20150;-81
2023/08/01 06:38:49;;;;;;;4.82;3.30;;;20.20;99.90;;;;;;7390757;19;20135;-80
2023/08/01 06:41:15;;;;;;;5.03;3.53;;;20.20;99.90;;;;;;7390379;19;20139;-79
2023/08/01 06:43:41;;;;;;;5.55;3.30;;;20.10;99.90;;;;;;7390930;19;20467;-81
2023/08/01 06:46:07;;;;;;;4.65;2.92;;;20.00;99.90;;;;;;7390345;19;20253;-80
2023/08/01 06:48:35;;;;;;;6.25;3.30;;;20.00;99.90;;;;;;7389905;19;20143;-78
2023/08/01 06:51:02;;;;;;;10.88;5.78;;;20.00;99.90;;;;;;7390373;19;20158;-80
2023/08/01 06:53:28;;;;;;;5.65;3.67;;;19.80;99.90;;;;;;7389222;19;20146;-80
2023/08/01 06:55:54;;;;;;;5.05;3.30;;;19.80;99.90;;;;;;7389985;19;20145;-80
2023/08/01 06:58:20;;;;;;;5.25;3.55;;;19.70;99.90;;;;;;7387692;19;20127;-81
2023/08/01 07:00:45;;;;;;;6.70;3.22;;;19.70;99.90;;;;;;7389503;19;20599;-82
2023/08/01 07:03:11;;;;;;;5.18;3.58;;;19.60;99.90;;;;;;7389164;19;20642;-80
2023/08/01 07:05:37;;;;;;;7.88;3.90;;;19.60;99.90;;;;;;7386816;19;20320;-80
2023/08/01 07:08:04;;;;;;;6.07;3.80;;;19.60;99.90;;;;;;7391754;19;20151;-81
2023/08/01 07:10:35;;;;;;;5.43;3.67;;;19.70;99.90;;;;;;7389077;19;20155;-77
2023/08/01 07:13:04;;;;;;;8.77;3.92;;;19.70;99.90;;;;;;7386760;19;20805;-78
2023/08/01 07:15:33;;;;;;;6.40;4.30;;;19.80;99.90;;;;;;7383687;19;20141;-79
2023/08/01 07:18:00;;;;;;;6.00;4.13;;;19.70;99.90;;;;;;7386022;19;20236;-80
2023/08/01 07:20:26;;;;;;;6.53;4.25;;;19.70;99.90;;;;;;7385715;19;20173;-79
2023/08/01 07:22:52;;;;;;;6.68;4.13;;;19.80;99.90;;;;;;7385833;19;20142;-79
2023/08/01 07:25:19;;;;;;;16.33;11.30;;;19.80;99.90;;;;;;7386357;19;20134;-78
2023/08/01 07:27:45;;;;;;;7.47;4.22;;;19.80;99.90;;;;;;7386597;19;20153;-79
2023/08/01 07:30:11;;;;;;;7.75;4.13;;;19.70;99.90;;;;;;7387054;19;20169;-81
2023/08/01 07:32:37;;;;;;;4.38;3.67;;;19.70;99.90;;;;;;7389814;19;20151;-81
2023/08/01 07:35:05;;;;;;;8.18;4.07;;;19.60;99.90;;;;;;7389209;19;20146;-78
2023/08/01 07:37:33;;;;;;;6.32;4.40;;;19.50;99.90;;;;;;7387743;19;20150;-79
2023/08/01 07:39:58;;;;;;;7.65;3.92;;;19.50;99.90;;;;;;7384887;19;20127;-79
2023/08/01 07:42:24;;;;;;;6.15;4.53;;;19.60;99.90;;;;;;7388449;19;20150;-76
2023/08/01 07:44:50;;;;;;;6.07;4.18;;;19.60;99.90;;;;;;7387574;19;20135;-76
2023/08/01 07:47:16;;;;;;;7.22;5.00;;;19.60;99.90;;;;;;7389169;19;20169;-77
2023/08/01 07:49:41;;;;;;;7.05;4.50;;;19.40;99.90;;;;;;7387732;19;20162;-77
2023/08/01 07:52:07;;;;;;;6.38;4.32;;;19.10;99.90;;;;;;7387182;19;20154;-77
2023/08/01 07:54:33;;;;;;;6.22;4.25;;;18.90;99.90;;;;;;7387301;19;20159;-78
2023/08/01 07:56:59;;;;;;;8.15;4.38;;;18.90;99.90;;;;;;7387391;19;20626;-79
2023/08/01 07:59:24;;;;;;;5.53;3.85;;;18.90;99.90;;;;;;7386444;19;20154;-78
2023/08/01 08:01:51;;;;;;;4.93;3.45;;;18.80;99.90;;;;;;7386970;19;20154;-77
2023/08/01 08:04:18;;;;;;;6.15;3.80;;;18.80;99.90;;;;;;7383441;19;20161;-79
2023/08/01 08:06:47;;;;;;;5.43;3.08;;;18.80;99.90;;;;;;7385835;19;20141;-77
2023/08/01 08:09:12;;;;;;;6.25;3.20;;;18.90;99.90;;;;;;7385627;19;20155;-79
2023/08/01 08:11:38;;;;;;;4.47;3.13;;;18.90;99.90;;;;;;7389189;19;20172;-84
2023/08/01 08:14:04;;;;;;;4.63;2.72;;;18.90;99.90;;;;;;7386312;19;20138;-78
2023/08/01 08:16:30;;;;;;;4.65;2.90;;;19.00;99.90;;;;;;7387899;19;20146;-81
2023/08/01 08:18:56;;;;;;;3.40;2.35;;;19.10;99.90;;;;;;7386402;19;20134;-81
2023/08/01 08:21:22;;;;;;;5.50;2.72;;;19.00;99.90;;;;;;7394428;19;20154;-79
2023/08/01 08:23:47;;;;;;;5.45;3.08;;;19.10;99.90;;;;;;7394456;19;20479;-80
2023/08/01 08:26:13;;;;;;;4.38;2.60;;;19.20;99.90;;;;;;7393742;19;20218;-81
2023/08/01 08:28:40;;;;;;;3.22;2.30;;;19.20;99.90;;;;;;7392768;19;20209;-81
2023/08/01 08:31:05;;;;;;;3.72;1.98;;;19.20;99.90;;;;;;7396323;19;20138;-79
2023/08/01 08:33:31;;;;;;;2.60;1.90;;;19.10;99.90;;;;;;7392155;19;20483;-80
2023/08/01 08:35:57;;;;;;;2.97;1.90;;;19.10;99.90;;;;;;7394716;19;20151;-80
2023/08/01 08:38:23;;;;;;;4.80;2.00;;;19.10;99.90;;;;;;7392177;19;20138;-80
2023/08/01 08:41:07;;;;;;;3.00;1.98;;;19.20;99.90;;;;;;7391968;19;20145;-80
2023/08/01 08:43:34;;;;;;;6.55;2.55;;;19.30;99.90;;;;;;7394820;19;20158;-80
2023/08/01 08:46:01;;;;;;;3.40;2.13;;;19.40;99.90;;;;;;7391512;19;20150;-79
2023/08/01 08:48:28;;;;;;;5.43;3.53;;;19.50;99.90;;;;;;7392809;19;20134;-79
2023/08/01 08:50:59;;;;;;;4.93;2.33;;;19.70;99.90;;;;;;7392028;19;20751;-79
2023/08/01 08:53:26;;;;;;;4.20;2.17;;;19.80;99.90;;;;;;7392876;19;20129;-79
2023/08/01 08:55:51;;;;;;;3.78;2.40;;;19.90;99.90;;;;;;7393357;19;20147;-79
2023/08/01 08:58:18;;;;;;;2.47;1.73;;;20.00;99.90;;;;;;7390555;19;20586;-79
2023/08/01 09:00:44;;;;;;;4.75;2.40;;;19.90;99.90;;;;;;7392151;19;20147;-79
2023/08/01 09:03:10;;;;;;;47.80;27.15;;;20.10;99.90;;;;;;7391994;19;20193;-79
2023/08/01 09:05:54;;;;;;;3.22;2.30;;;20.30;99.90;;;;;;7392488;19;20149;-79
2023/08/01 09:08:21;;;;;;;3.42;2.15;;;20.30;99.90;;;;;;7393770;19;20162;-78
2023/08/01 09:10:48;;;;;;;2.30;2.05;;;20.10;99.90;;;;;;7392107;19;20190;-78
2023/08/01 09:13:14;;;;;;;4.05;2.25;;;20.10;99.90;;;;;;7391338;19;20144;-79
2023/08/01 09:15:45;;;;;;;3.88;1.80;;;19.80;99.90;;;;;;7392099;19;20137;-77
2023/08/01 09:18:11;;;;;;;5.07;2.92;;;19.80;99.90;;;;;;7391701;19;20149;-78
2023/08/01 09:20:46;;;;;;;2.80;2.10;;;20.00;99.90;;;;;;7391943;19;20789;-79
2023/08/01 09:23:12;;;;;;;3.60;2.03;;;20.00;99.90;;;;;;7390151;19;20265;-76
2023/08/01 09:25:39;;;;;;;4.53;1.90;;;19.90;99.90;;;;;;7392292;19;20131;-77
2023/08/01 09:28:18;;;;;;;5.57;4.43;;;19.90;99.90;;;;;;7391570;19;20150;-77
2023/08/01 09:30:57;;;;;;;3.47;2.05;;;20.00;99.90;;;;;;7391591;19;21132;-77
2023/08/01 09:33:23;;;;;;;3.67;2.60;;;20.10;99.90;;;;;;7390152;19;20151;-75
2023/08/01 09:35:50;;;;;;;4.53;3.53;;;20.10;99.90;;;;;;7391322;19;20610;-76
2023/08/01 09:38:17;;;;;;;3.05;1.65;;;20.10;99.90;;;;;;7388915;19;20146;-76
2023/08/01 09:40:44;;;;;;;3.05;1.70;;;20.20;99.90;;;;;;7390366;19;20150;-77
2023/08/01 09:43:11;;;;;;;2.60;1.52;;;20.20;99.90;;;;;;7392394;19;20163;-76
2023/08/01 09:45:37;;;;;;;3.40;1.45;;;20.30;99.90;;;;;;7390267;19;20135;-77
2023/08/01 09:48:03;;;;;;;2.03;1.20;;;20.40;99.90;;;;;;7390233;19;20169;-76
2023/08/01 09:50:29;;;;;;;3.38;1.45;;;20.40;99.90;;;;;;7390580;19;20465;-78
2023/08/01 09:52:55;;;;;;;1.98;1.50;;;20.50;99.90;;;;;;7389398;19;20138;-76
2023/08/01 09:55:41;;;;;;;4.82;1.90;;;20.60;99.90;;;;;;7390904;19;20509;-73
2023/08/01 09:58:10;;;;;;;2.88;1.20;;;20.70;99.90;;;;;;7386380;19;20154;-76
2023/08/01 10:00:36;;;;;;;1.92;1.27;;;20.60;99.90;;;;;;7392030;19;20135;-73
2023/08/01 10:03:03;;;;;;;3.75;2.70;;;20.60;99.90;;;;;;7389719;19;20181;-73
2023/08/01 10:05:31;;;;;;;2.17;1.40;;;20.50;99.90;;;;;;7392393;19;20183;-75
2023/08/01 10:08:02;;;;;;;3.88;1.27;;;20.80;99.90;;;;;;7390114;19;20151;-74
2023/08/01 10:10:28;;;;;;;2.65;1.38;;;20.90;99.90;;;;;;7389738;19;20226;-74
2023/08/01 10:12:57;;;;;;;3.90;1.20;;;21.00;99.90;;;;;;7390378;19;20624;-73
2023/08/01 10:15:25;;;;;;;1.33;1.08;;;20.80;99.90;;;;;;7390687;19;20163;-75
2023/08/01 10:17:51;;;;;;;1.35;0.90;;;20.80;99.90;;;;;;7388493;19;20142;-77
2023/08/01 10:20:19;;;;;;;2.00;1.20;;;21.00;99.90;;;;;;7388674;19;20131;-76
2023/08/01 10:22:47;;;;;;;2.80;1.13;;;21.00;99.90;;;;;;7389151;19;20143;-76
2023/08/01 10:25:13;;;;;;;0.70;0.50;;;21.10;99.90;;;;;;7388606;19;20139;-77
2023/08/01 10:27:40;;;;;;;0.93;0.60;;;21.10;99.90;;;;;;7392488;19;20145;-75
2023/08/01 10:30:07;;;;;;;2.05;1.00;;;20.90;99.90;;;;;;7389116;19;20151;-79
2023/08/01 10:32:35;;;;;;;1.73;1.13;;;20.90;99.90;;;;;;7390990;19;20161;-76
2023/08/01 10:35:02;;;;;;;5.40;2.78;;;20.90;99.90;;;;;;7389324;19;20169;-75
2023/08/01 10:37:42;;;;;;;2.08;1.20;;;20.90;99.90;;;;;;7390958;19;20214;-75
2023/08/01 10:40:09;;;;;;;2.88;1.38;;;21.00;99.90;;;;;;7388110;19;20143;-75
2023/08/01 10:42:43;;;;;;;2.13;1.08;;;21.00;99.90;;;;;;7389650;19;20149;-76
2023/08/01 10:45:23;;;;;;;1.30;0.68;;;21.00;99.90;;;;;;7387867;19;20653;-77
2023/08/01 10:47:50;;;;;;;0.77;0.60;;;21.10;99.90;;;;;;7390498;19;20138;-75
2023/08/01 10:50:17;;;;;;;1.67;0.60;;;21.40;99.90;;;;;;7392102;19;20169;-76
2023/08/01 10:52:44;;;;;;;2.88;0.73;;;21.60;99.90;;;;;;7387023;19;20127;-75
2023/08/01 10:55:11;;;;;;;0.98;0.50;;;21.60;99.90;;;;;;7387820;19;20149;-75
2023/08/01 10:57:39;;;;;;;0.60;0.57;;;21.10;99.90;;;;;;7388620;19;20142;-76
2023/08/01 11:00:11;;;;;;;0.70;0.60;;;21.10;99.90;;;;;;7385104;19;20149;-75
2023/08/01 11:02:37;;;;;;;1.67;0.60;;;21.30;99.90;;;;;;7388628;19;20155;-74
2023/08/01 11:05:03;;;;;;;1.75;0.90;;;21.40;99.90;;;;;;7389277;19;20201;-76
2023/08/01 11:07:30;;;;;;;0.77;0.68;;;21.60;99.90;;;;;;7389968;19;20142;-77
2023/08/01 11:10:10;;;;;;;2.28;0.40;;;21.80;99.90;;;;;;7386951;19;20495;-77
2023/08/01 11:12:42;;;;;;;1.23;0.75;;;21.70;99.90;;;;;;7387399;19;20602;-77
2023/08/01 11:15:09;;;;;;;3.00;2.13;;;21.70;99.90;;;;;;7388237;19;20258;-79
2023/08/01 11:17:56;;;;;;;0.88;0.65;;;21.70;99.90;;;;;;7387592;19;20151;-78
2023/08/01 11:20:23;;;;;;;0.80;0.40;;;21.90;99.90;;;;;;7387132;19;20146;-77
2023/08/01 11:22:58;;;;;;;0.88;0.70;;;22.10;99.90;;;;;;7388507;19;20157;-75
2023/08/01 11:25:45;;;;;;;3.42;1.20;;;22.30;99.90;;;;;;7389257;19;20589;-75
2023/08/01 11:28:15;;;;;;;1.85;1.05;;;22.30;99.90;;;;;;7389806;19;20173;-75
2023/08/01 11:30:42;;;;;;;4.75;3.90;;;22.20;99.90;;;;;;7388614;19;20602;-75
2023/08/01 11:33:20;;;;;;;2.97;2.22;;;22.00;99.90;;;;;;7387855;19;20151;-77
2023/08/01 11:35:57;;;;;;;1.05;0.77;;;22.10;99.90;;;;;;7391220;19;20214;-79
2023/08/01 11:38:25;;;;;;;1.33;0.70;;;22.20;99.90;;;;;;7389751;19;20142;-79
2023/08/01 11:40:52;;;;;;;1.25;0.70;;;22.20;99.90;;;;;;7389065;19;20213;-78
2023/08/01 11:43:17;;;;;;;1.50;1.10;;;22.40;99.90;;;;;;7387920;19;20614;-77
2023/08/01 11:45:51;;;;;;;1.90;0.80;;;22.70;99.90;;;;;;7391316;19;20126;-80
2023/08/01 11:48:18;;;;;;;0.80;0.70;;;22.90;99.90;;;;;;7384359;19;20141;-77
2023/08/01 11:50:44;;;;;;;1.98;0.88;;;22.90;99.90;;;;;;7385778;19;20206;-77
2023/08/01 11:53:22;;;;;;;1.23;1.00;;;23.00;99.90;;;;;;7385246;19;20259;-81
2023/08/01 11:55:49;;;;;;;1.60;0.98;;;23.00;99.90;;;;;;7388638;19;20606;-83
2023/08/01 11:58:30;;;;;;;1.33;1.00;;;23.20;99.90;;;;;;7387795;19;20146;-83
2023/08/01 12:01:06;;;;;;;1.58;0.80;;;23.20;99.90;;;;;;7390909;19;20892;-82
2023/08/01 12:03:33;;;;;;;0.90;0.70;;;23.30;99.90;;;;;;7389417;19;20259;-77
2023/08/01 12:06:08;;;;;;;2.58;0.90;;;23.20;99.90;;;;;;7388813;19;20142;-76
2023/08/01 12:08:34;;;;;;;1.77;1.00;;;23.20;99.90;;;;;;7388247;19;20138;-76
2023/08/01 12:11:00;;;;;;;1.05;0.93;;;23.20;99.90;;;;;;7388010;19;20156;-75
2023/08/01 12:13:27;;;;;;;2.75;0.70;;;23.30;99.90;;;;;;7388640;19;20154;-75
2023/08/01 12:15:57;;;;;;;2.00;0.90;;;23.00;99.90;;;;;;7388379;19;20590;-75
2023/08/01 12:18:24;;;;;;;1.15;0.73;;;23.00;99.90;;;;;;7389983;19;20139;-74
2023/08/01 12:20:51;;;;;;;1.88;0.90;;;22.90;99.90;;;;;;7388875;19;20664;-75
2023/08/01 12:23:17;;;;;;;3.38;1.10;;;22.80;99.90;;;;;;7389668;19;20142;-76
2023/08/01 12:25:43;;;;;;;1.30;1.00;;;23.10;99.90;;;;;;7388088;19;20153;-75
2023/08/01 12:28:08;;;;;;;2.67;0.82;;;23.30;99.90;;;;;;7387916;19;20466;-76
2023/08/01 12:30:34;;;;;;;1.65;1.10;;;23.40;99.90;;;;;;7387738;19;20142;-77
2023/08/01 12:33:00;;;;;;;1.58;0.93;;;23.50;99.90;;;;;;7387683;19;20126;-75
2023/08/01 12:35:27;;;;;;;1.67;0.85;;;23.40;99.90;;;;;;7389374;19;20131;-75
2023/08/01 12:37:59;;;;;;;1.70;0.90;;;23.50;99.90;;;;;;7390956;19;20126;-75
2023/08/01 12:40:25;;;;;;;1.35;0.95;;;23.20;99.90;;;;;;7391570;19;20131;-77
2023/08/01 12:42:50;;;;;;;1.90;1.10;;;23.30;99.90;;;;;;7388725;19;20156;-77
2023/08/01 12:45:16;;;;;;;1.05;0.73;;;23.50;99.90;;;;;;7386016;19;20135;-76